Nitro, West Virginia
Current Conditions -  °F | °C
As of 8:34 PM on Wednesday 26 Nov 2014 (Local Time) from KCRW Reporting Station
Moderate Fog Moderate Fog  
Wind Chill: 36°   Ceiling: 100
Heat Index: 36°   Visibility: 0.5mi
Dew Point: 34°   Wind: 0mph
Humidity: 93%   Direction: NA
Pressure: 30.02"   Gusts: NA
Location:  38.42°N, 81.84°W
Report Text: KCRW 270134Z 00000KT 1/2SM FG VV001 02/01 A3002 RMK AO2 T00220011 RVRNO
Loading
Personal Weather Stations






























Interactive Weather Map New forecast layout! Learn more

10-Day Weather Forecast

Advertisements
Track Severe Weather on mobile